sensor_id;sensor_type;location;lat;lon;timestamp;temperature;humidity
27922;DHT22;15261;50.356;10.340;2024-03-17T00:02:06;6.60;99.90
27922;DHT22;15261;50.356;10.340;2024-03-17T00:04:32;6.60;99.90
27922;DHT22;15261;50.356;10.340;2024-03-17T00:06:58;6.40;99.90
27922;DHT22;15261;50.356;10.340;2024-03-17T00:09:24;6.30;99.90
27922;DHT22;15261;50.356;10.340;2024-03-17T00:11:50;6.40;99.90
27922;DHT22;15261;50.356;10.340;2024-03-17T00:14:16;6.30;99.90
27922;DHT22;15261;50.356;10.340;2024-03-17T00:16:44;6.30;99.90
27922;DHT22;15261;50.356;10.340;2024-03-17T00:19:09;6.40;99.90
27922;DHT22;15261;50.356;10.340;2024-03-17T00:21:36;6.20;99.90
27922;DHT22;15261;50.356;10.340;2024-03-17T00:24:01;6.10;99.90
27922;DHT22;15261;50.356;10.340;2024-03-17T00:26:28;6.20;99.90
27922;DHT22;15261;50.356;10.340;2024-03-17T00:28:55;6.30;99.90
27922;DHT22;15261;50.356;10.340;2024-03-17T00:31:20;6.40;99.90
27922;DHT22;15261;50.356;10.340;2024-03-17T00:33:46;6.40;99.90
27922;DHT22;15261;50.356;10.340;2024-03-17T00:36:12;6.50;99.90
27922;DHT22;15261;50.356;10.340;2024-03-17T00:38:37;6.50;99.90
27922;DHT22;15261;50.356;10.340;2024-03-17T00:41:04;6.60;99.90
27922;DHT22;15261;50.356;10.340;2024-03-17T00:43:29;6.60;99.90
27922;DHT22;15261;50.356;10.340;2024-03-17T00:45:55;6.60;99.90
27922;DHT22;15261;50.356;10.340;2024-03-17T00:48:20;6.50;99.90
27922;DHT22;15261;50.356;10.340;2024-03-17T00:50:46;6.40;99.90
27922;DHT22;15261;50.356;10.340;2024-03-17T00:53:11;6.40;99.90
27922;DHT22;15261;50.356;10.340;2024-03-17T00:55:37;6.30;99.90
27922;DHT22;15261;50.356;10.340;2024-03-17T00:58:03;6.20;99.90
27922;DHT22;15261;50.356;10.340;2024-03-17T01:00:29;6.30;99.90
27922;DHT22;15261;50.356;10.340;2024-03-17T01:02:55;6.20;99.90
27922;DHT22;15261;50.356;10.340;2024-03-17T01:05:21;6.10;99.90
27922;DHT22;15261;50.356;10.340;2024-03-17T01:07:46;6.00;99.90
27922;DHT22;15261;50.356;10.340;2024-03-17T01:10:15;5.90;99.90
27922;DHT22;15261;50.356;10.340;2024-03-17T01:12:41;5.90;99.90
27922;DHT22;15261;50.356;10.340;2024-03-17T01:15:07;5.90;99.90
27922;DHT22;15261;50.356;10.340;2024-03-17T01:17:33;5.80;99.90
27922;DHT22;15261;50.356;10.340;2024-03-17T01:19:59;5.90;99.90
27922;DHT22;15261;50.356;10.340;2024-03-17T01:22:25;5.80;99.90
27922;DHT22;15261;50.356;10.340;2024-03-17T01:24:50;5.80;99.90
27922;DHT22;15261;50.356;10.340;2024-03-17T01:27:16;5.80;99.90
27922;DHT22;15261;50.356;10.340;2024-03-17T01:29:42;5.80;99.90
27922;DHT22;15261;50.356;10.340;2024-03-17T01:32:11;5.70;99.90
27922;DHT22;15261;50.356;10.340;2024-03-17T01:34:40;5.70;99.90
27922;DHT22;15261;50.356;10.340;2024-03-17T01:37:06;5.80;99.90
27922;DHT22;15261;50.356;10.340;2024-03-17T01:39:32;5.90;99.90
27922;DHT22;15261;50.356;10.340;2024-03-17T01:41:58;6.00;99.90
27922;DHT22;15261;50.356;10.340;2024-03-17T01:44:28;6.10;99.90
27922;DHT22;15261;50.356;10.340;2024-03-17T01:46:57;6.10;99.90
27922;DHT22;15261;50.356;10.340;2024-03-17T01:49:24;6.10;99.90
27922;DHT22;15261;50.356;10.340;2024-03-17T01:51:51;6.10;99.90
27922;DHT22;15261;50.356;10.340;2024-03-17T01:54:18;6.10;99.90
27922;DHT22;15261;50.356;10.340;2024-03-17T01:56:44;6.10;99.90
27922;DHT22;15261;50.356;10.340;2024-03-17T01:59:10;6.20;99.90
27922;DHT22;15261;50.356;10.340;2024-03-17T02:23:05;5.40;99.90
27922;DHT22;15261;50.356;10.340;2024-03-17T02:25:31;5.30;99.90
27922;DHT22;15261;50.356;10.340;2024-03-17T02:27:56;5.20;99.90
27922;DHT22;15261;50.356;10.340;2024-03-17T02:30:22;5.10;99.90
27922;DHT22;15261;50.356;10.340;2024-03-17T02:32:52;4.90;99.90
27922;DHT22;15261;50.356;10.340;2024-03-17T02:35:18;4.90;99.90
27922;DHT22;15261;50.356;10.340;2024-03-17T02:37:43;4.90;99.90
27922;DHT22;15261;50.356;10.340;2024-03-17T02:40:09;4.80;99.90
27922;DHT22;15261;50.356;10.340;2024-03-17T02:42:36;4.60;99.90
27922;DHT22;15261;50.356;10.340;2024-03-17T02:45:04;4.60;99.90
27922;DHT22;15261;50.356;10.340;2024-03-17T02:47:53;4.50;99.90
27922;DHT22;15261;50.356;10.340;2024-03-17T02:50:18;4.50;99.90
27922;DHT22;15261;50.356;10.340;2024-03-17T02:52:44;4.40;99.90
27922;DHT22;15261;50.356;10.340;2024-03-17T02:55:09;4.30;99.90
27922;DHT22;15261;50.356;10.340;2024-03-17T02:57:35;4.30;99.90
27922;DHT22;15261;50.356;10.340;2024-03-17T03:00:01;4.30;99.90
27922;DHT22;15261;50.356;10.340;2024-03-17T03:02:29;4.30;99.90
27922;DHT22;15261;50.356;10.340;2024-03-17T03:04:55;4.30;99.90
27922;DHT22;15261;50.356;10.340;2024-03-17T03:07:20;4.30;99.90
27922;DHT22;15261;50.356;10.340;2024-03-17T03:09:46;4.10;99.90
27922;DHT22;15261;50.356;10.340;2024-03-17T03:12:12;4.00;99.90
27922;DHT22;15261;50.356;10.340;2024-03-17T03:14:38;4.00;99.90
27922;DHT22;15261;50.356;10.340;2024-03-17T03:17:03;3.80;99.90
27922;DHT22;15261;50.356;10.340;2024-03-17T03:19:29;3.90;99.90
27922;DHT22;15261;50.356;10.340;2024-03-17T03:21:55;3.90;99.90
27922;DHT22;15261;50.356;10.340;2024-03-17T03:24:21;3.80;99.90
27922;DHT22;15261;50.356;10.340;2024-03-17T03:26:47;3.70;99.90
27922;DHT22;15261;50.356;10.340;2024-03-17T03:29:14;3.70;99.90
27922;DHT22;15261;50.356;10.340;2024-03-17T03:31:40;3.70;99.90
27922;DHT22;15261;50.356;10.340;2024-03-17T03:34:06;3.70;99.90
27922;DHT22;15261;50.356;10.340;2024-03-17T03:36:34;3.70;99.90
27922;DHT22;15261;50.356;10.340;2024-03-17T03:39:01;3.70;99.90
27922;DHT22;15261;50.356;10.340;2024-03-17T03:41:30;3.70;99.90
27922;DHT22;15261;50.356;10.340;2024-03-17T03:43:55;3.70;99.90
27922;DHT22;15261;50.356;10.340;2024-03-17T03:46:21;3.60;99.90
27922;DHT22;15261;50.356;10.340;2024-03-17T03:48:46;3.50;99.90
27922;DHT22;15261;50.356;10.340;2024-03-17T03:51:12;3.50;99.90
27922;DHT22;15261;50.356;10.340;2024-03-17T03:53:37;3.30;99.90
27922;DHT22;15261;50.356;10.340;2024-03-17T03:56:04;3.20;99.90
27922;DHT22;15261;50.356;10.340;2024-03-17T03:58:37;3.10;99.90
27922;DHT22;15261;50.356;10.340;2024-03-17T04:01:10;3.10;99.90
27922;DHT22;15261;50.356;10.340;2024-03-17T04:03:46;3.00;99.90
27922;DHT22;15261;50.356;10.340;2024-03-17T04:06:12;3.00;99.90
27922;DHT22;15261;50.356;10.340;2024-03-17T04:08:38;3.00;99.90
27922;DHT22;15261;50.356;10.340;2024-03-17T04:11:07;2.90;99.90
27922;DHT22;15261;50.356;10.340;2024-03-17T04:13:33;3.00;99.90
27922;DHT22;15261;50.356;10.340;2024-03-17T04:16:05;3.00;99.90
27922;DHT22;15261;50.356;10.340;2024-03-17T04:18:31;3.10;99.90
27922;DHT22;15261;50.356;10.340;2024-03-17T04:21:04;3.00;99.90
27922;DHT22;15261;50.356;10.340;2024-03-17T04:23:30;3.00;99.90
27922;DHT22;15261;50.356;10.340;2024-03-17T04:25:58;2.90;99.90
27922;DHT22;15261;50.356;10.340;2024-03-17T04:28:23;2.80;99.90
27922;DHT22;15261;50.356;10.340;2024-03-17T04:30:49;2.70;99.90
27922;DHT22;15261;50.356;10.340;2024-03-17T04:33:15;2.60;99.90
27922;DHT22;15261;50.356;10.340;2024-03-17T04:35:42;2.50;99.90
27922;DHT22;15261;50.356;10.340;2024-03-17T04:38:08;2.30;99.90
27922;DHT22;15261;50.356;10.340;2024-03-17T04:40:43;2.20;99.90
27922;DHT22;15261;50.356;10.340;2024-03-17T04:43:09;2.20;99.90
27922;DHT22;15261;50.356;10.340;2024-03-17T04:45:35;2.20;99.90
27922;DHT22;15261;50.356;10.340;2024-03-17T04:48:01;2.40;99.90
27922;DHT22;15261;50.356;10.340;2024-03-17T04:50:26;2.40;99.90
27922;DHT22;15261;50.356;10.340;2024-03-17T04:52:57;2.50;99.90
27922;DHT22;15261;50.356;10.340;2024-03-17T04:55:23;2.30;99.90
27922;DHT22;15261;50.356;10.340;2024-03-17T04:57:48;2.30;99.90
27922;DHT22;15261;50.356;10.340;2024-03-17T05:00:14;2.40;99.90
27922;DHT22;15261;50.356;10.340;2024-03-17T05:02:40;2.50;99.90
27922;DHT22;15261;50.356;10.340;2024-03-17T05:05:06;2.50;99.90
27922;DHT22;15261;50.356;10.340;2024-03-17T05:07:34;2.40;99.90
27922;DHT22;15261;50.356;10.340;2024-03-17T05:10:00;2.40;99.90
27922;DHT22;15261;50.356;10.340;2024-03-17T05:12:25;2.20;99.90
27922;DHT22;15261;50.356;10.340;2024-03-17T05:14:54;2.20;99.90
27922;DHT22;15261;50.356;10.340;2024-03-17T05:17:19;2.20;99.90
27922;DHT22;15261;50.356;10.340;2024-03-17T05:19:45;2.10;99.90
27922;DHT22;15261;50.356;10.340;2024-03-17T05:22:10;2.00;99.90
27922;DHT22;15261;50.356;10.340;2024-03-17T05:24:37;2.00;99.90
27922;DHT22;15261;50.356;10.340;2024-03-17T05:27:02;2.10;99.90
27922;DHT22;15261;50.356;10.340;2024-03-17T05:29:29;2.10;99.90
27922;DHT22;15261;50.356;10.340;2024-03-17T05:31:54;2.20;99.90
27922;DHT22;15261;50.356;10.340;2024-03-17T05:34:20;2.20;99.90
27922;DHT22;15261;50.356;10.340;2024-03-17T05:36:45;2.10;99.90
27922;DHT22;15261;50.356;10.340;2024-03-17T05:39:12;2.00;99.90
27922;DHT22;15261;50.356;10.340;2024-03-17T05:41:38;2.00;99.90
27922;DHT22;15261;50.356;10.340;2024-03-17T05:44:03;2.10;99.90
27922;DHT22;15261;50.356;10.340;2024-03-17T05:46:29;1.80;99.90
27922;DHT22;15261;50.356;10.340;2024-03-17T05:48:55;1.90;99.90
27922;DHT22;15261;50.356;10.340;2024-03-17T05:51:21;2.00;99.90
27922;DHT22;15261;50.356;10.340;2024-03-17T05:53:47;2.10;99.90
27922;DHT22;15261;50.356;10.340;2024-03-17T05:56:14;2.20;99.90
27922;DHT22;15261;50.356;10.340;2024-03-17T05:58:41;2.20;99.90
27922;DHT22;15261;50.356;10.340;2024-03-17T06:01:07;2.30;99.90
27922;DHT22;15261;50.356;10.340;2024-03-17T06:03:36;2.40;99.90
27922;DHT22;15261;50.356;10.340;2024-03-17T06:06:02;2.50;99.90
27922;DHT22;15261;50.356;10.340;2024-03-17T06:08:29;2.50;99.90
27922;DHT22;15261;50.356;10.340;2024-03-17T06:10:54;2.70;99.90
27922;DHT22;15261;50.356;10.340;2024-03-17T06:13:23;2.90;99.90
27922;DHT22;15261;50.356;10.340;2024-03-17T06:15:50;3.00;99.90
27922;DHT22;15261;50.356;10.340;2024-03-17T06:18:15;3.00;99.90
27922;DHT22;15261;50.356;10.340;2024-03-17T06:20:44;3.10;99.90
27922;DHT22;15261;50.356;10.340;2024-03-17T06:23:10;3.10;99.90
27922;DHT22;15261;50.356;10.340;2024-03-17T06:28:05;3.20;99.90
27922;DHT22;15261;50.356;10.340;2024-03-17T06:30:30;3.30;99.90
27922;DHT22;15261;50.356;10.340;2024-03-17T06:32:58;3.40;99.90
27922;DHT22;15261;50.356;10.340;2024-03-17T06:35:23;3.60;99.90
27922;DHT22;15261;50.356;10.340;2024-03-17T06:37:52;3.60;99.90
27922;DHT22;15261;50.356;10.340;2024-03-17T06:40:18;3.80;99.90
27922;DHT22;15261;50.356;10.340;2024-03-17T06:42:44;4.10;99.90
27922;DHT22;15261;50.356;10.340;2024-03-17T06:45:10;4.20;99.90
27922;DHT22;15261;50.356;10.340;2024-03-17T06:47:39;4.30;99.90
27922;DHT22;15261;50.356;10.340;2024-03-17T06:50:06;4.40;99.90
27922;DHT22;15261;50.356;10.340;2024-03-17T06:52:35;4.50;99.90
27922;DHT22;15261;50.356;10.340;2024-03-17T06:55:01;4.60;99.90
27922;DHT22;15261;50.356;10.340;2024-03-17T06:57:26;4.80;99.90
27922;DHT22;15261;50.356;10.340;2024-03-17T06:59:52;4.90;99.90
27922;DHT22;15261;50.356;10.340;2024-03-17T07:02:17;4.80;99.90
27922;DHT22;15261;50.356;10.340;2024-03-17T07:04:48;4.90;99.90
27922;DHT22;15261;50.356;10.340;2024-03-17T07:07:14;4.60;99.90
27922;DHT22;15261;50.356;10.340;2024-03-17T07:09:40;4.80;99.90
27922;DHT22;15261;50.356;10.340;2024-03-17T07:12:07;5.00;99.90
27922;DHT22;15261;50.356;10.340;2024-03-17T07:14:33;5.10;99.90
27922;DHT22;15261;50.356;10.340;2024-03-17T07:16:58;5.30;99.90
27922;DHT22;15261;50.356;10.340;2024-03-17T07:19:24;5.50;99.90
27922;DHT22;15261;50.356;10.340;2024-03-17T07:21:50;5.70;99.90
27922;DHT22;15261;50.356;10.340;2024-03-17T07:24:16;5.90;99.90
27922;DHT22;15261;50.356;10.340;2024-03-17T07:26:41;5.90;99.90
27922;DHT22;15261;50.356;10.340;2024-03-17T07:29:07;5.80;99.90
27922;DHT22;15261;50.356;10.340;2024-03-17T07:31:34;6.00;99.90
27922;DHT22;15261;50.356;10.340;2024-03-17T07:33:59;6.00;99.90
27922;DHT22;15261;50.356;10.340;2024-03-17T07:36:25;6.00;99.90
27922;DHT22;15261;50.356;10.340;2024-03-17T07:38:50;5.90;99.90
27922;DHT22;15261;50.356;10.340;2024-03-17T07:41:17;5.90;99.90
27922;DHT22;15261;50.356;10.340;2024-03-17T07:43:45;5.90;99.90
27922;DHT22;15261;50.356;10.340;2024-03-17T07:46:11;5.80;99.90
27922;DHT22;15261;50.356;10.340;2024-03-17T07:48:39;5.90;99.90
27922;DHT22;15261;50.356;10.340;2024-03-17T07:51:06;6.20;99.90
27922;DHT22;15261;50.356;10.340;2024-03-17T07:53:33;6.30;99.90
27922;DHT22;15261;50.356;10.340;2024-03-17T07:56:05;6.50;99.90
27922;DHT22;15261;50.356;10.340;2024-03-17T07:58:33;6.50;99.90
27922;DHT22;15261;50.356;10.340;2024-03-17T08:01:02;6.50;99.90
27922;DHT22;15261;50.356;10.340;2024-03-17T08:03:30;6.70;99.90
27922;DHT22;15261;50.356;10.340;2024-03-17T08:05:57;6.70;99.90
27922;DHT22;15261;50.356;10.340;2024-03-17T08:11:36;6.90;99.90
27922;DHT22;15261;50.356;10.340;2024-03-17T08:14:02;7.10;99.90
27922;DHT22;15261;50.356;10.340;2024-03-17T08:16:27;7.20;99.90
27922;DHT22;15261;50.356;10.340;2024-03-17T08:18:54;7.30;99.90
27922;DHT22;15261;50.356;10.340;2024-03-17T08:21:20;7.30;99.90
27922;DHT22;15261;50.356;10.340;2024-03-17T08:23:46;7.50;99.90
27922;DHT22;15261;50.356;10.340;2024-03-17T08:26:12;7.70;99.90
27922;DHT22;15261;50.356;10.340;2024-03-17T08:28:38;7.80;99.90
27922;DHT22;15261;50.356;10.340;2024-03-17T08:31:04;7.80;99.90
27922;DHT22;15261;50.356;10.340;2024-03-17T08:33:30;8.00;99.90
27922;DHT22;15261;50.356;10.340;2024-03-17T08:36:00;8.10;99.90
27922;DHT22;15261;50.356;10.340;2024-03-17T08:38:26;8.20;99.90
27922;DHT22;15261;50.356;10.340;2024-03-17T08:40:54;8.20;99.90
27922;DHT22;15261;50.356;10.340;2024-03-17T08:43:20;8.30;99.90
27922;DHT22;15261;50.356;10.340;2024-03-17T08:45:57;8.40;99.90
27922;DHT22;15261;50.356;10.340;2024-03-17T08:48:28;8.50;99.90
27922;DHT22;15261;50.356;10.340;2024-03-17T08:50:57;8.60;99.90
27922;DHT22;15261;50.356;10.340;2024-03-17T08:53:23;8.50;99.90
27922;DHT22;15261;50.356;10.340;2024-03-17T08:55:49;8.60;99.90
27922;DHT22;15261;50.356;10.340;2024-03-17T08:58:15;8.60;99.90
27922;DHT22;15261;50.356;10.340;2024-03-17T09:00:41;8.60;99.90
27922;DHT22;15261;50.356;10.340;2024-03-17T09:03:07;8.70;99.90
27922;DHT22;15261;50.356;10.340;2024-03-17T09:05:41;9.00;99.90
27922;DHT22;15261;50.356;10.340;2024-03-17T09:08:07;9.00;99.90
27922;DHT22;15261;50.356;10.340;2024-03-17T09:10:40;9.00;99.90
27922;DHT22;15261;50.356;10.340;2024-03-17T09:13:06;9.00;99.90
27922;DHT22;15261;50.356;10.340;2024-03-17T09:15:32;9.10;99.90
27922;DHT22;15261;50.356;10.340;2024-03-17T09:17:57;9.00;99.90
27922;DHT22;15261;50.356;10.340;2024-03-17T09:20:24;9.10;99.90
27922;DHT22;15261;50.356;10.340;2024-03-17T09:22:49;9.10;99.90
27922;DHT22;15261;50.356;10.340;2024-03-17T09:25:15;9.00;99.90
27922;DHT22;15261;50.356;10.340;2024-03-17T09:27:40;9.20;99.90
27922;DHT22;15261;50.356;10.340;2024-03-17T09:30:07;9.20;99.90
27922;DHT22;15261;50.356;10.340;2024-03-17T09:32:35;9.20;99.90
27922;DHT22;15261;50.356;10.340;2024-03-17T09:35:01;9.30;99.90
27922;DHT22;15261;50.356;10.340;2024-03-17T09:37:28;9.20;99.90
27922;DHT22;15261;50.356;10.340;2024-03-17T09:39:56;9.20;99.90
27922;DHT22;15261;50.356;10.340;2024-03-17T09:42:23;9.40;99.90
27922;DHT22;15261;50.356;10.340;2024-03-17T09:45:01;9.50;99.90
27922;DHT22;15261;50.356;10.340;2024-03-17T09:47:26;9.60;99.70
27922;DHT22;15261;50.356;10.340;2024-03-17T09:49:52;9.70;97.70
27922;DHT22;15261;50.356;10.340;2024-03-17T09:52:25;9.70;97.10
27922;DHT22;15261;50.356;10.340;2024-03-17T09:55:09;9.90;96.30
27922;DHT22;15261;50.356;10.340;2024-03-17T09:57:38;10.00;95.30
27922;DHT22;15261;50.356;10.340;2024-03-17T10:00:10;10.10;95.20
27922;DHT22;15261;50.356;10.340;2024-03-17T10:02:46;10.10;93.60
27922;DHT22;15261;50.356;10.340;2024-03-17T10:05:23;10.20;93.70
27922;DHT22;15261;50.356;10.340;2024-03-17T10:07:51;10.20;93.90
27922;DHT22;15261;50.356;10.340;2024-03-17T10:10:21;10.30;93.70
27922;DHT22;15261;50.356;10.340;2024-03-17T10:12:52;10.20;92.50
27922;DHT22;15261;50.356;10.340;2024-03-17T10:15:19;10.30;92.90
27922;DHT22;15261;50.356;10.340;2024-03-17T10:17:45;10.30;92.40
27922;DHT22;15261;50.356;10.340;2024-03-17T10:20:21;10.30;92.40
27922;DHT22;15261;50.356;10.340;2024-03-17T10:23:07;10.20;93.80
27922;DHT22;15261;50.356;10.340;2024-03-17T10:25:38;10.40;94.30
27922;DHT22;15261;50.356;10.340;2024-03-17T10:28:10;10.40;94.10
27922;DHT22;15261;50.356;10.340;2024-03-17T10:30:39;10.40;93.70
27922;DHT22;15261;50.356;10.340;2024-03-17T10:33:06;10.50;93.70
27922;DHT22;15261;50.356;10.340;2024-03-17T10:35:35;10.60;94.10
27922;DHT22;15261;50.356;10.340;2024-03-17T10:38:06;10.70;93.70
27922;DHT22;15261;50.356;10.340;2024-03-17T10:40:35;10.60;93.50
27922;DHT22;15261;50.356;10.340;2024-03-17T10:43:07;10.50;93.20
27922;DHT22;15261;50.356;10.340;2024-03-17T10:45:33;10.40;93.70
27922;DHT22;15261;50.356;10.340;2024-03-17T10:48:06;10.40;93.00
27922;DHT22;15261;50.356;10.340;2024-03-17T10:50:38;10.40;94.10
27922;DHT22;15261;50.356;10.340;2024-03-17T10:53:08;10.60;93.10
27922;DHT22;15261;50.356;10.340;2024-03-17T10:58:07;11.00;94.00
27922;DHT22;15261;50.356;10.340;2024-03-17T11:00:34;11.10;93.30
27922;DHT22;15261;50.356;10.340;2024-03-17T11:03:01;11.10;92.40
27922;DHT22;15261;50.356;10.340;2024-03-17T11:05:28;11.00;92.20
27922;DHT22;15261;50.356;10.340;2024-03-17T11:07:56;11.00;93.40
27922;DHT22;15261;50.356;10.340;2024-03-17T11:10:27;11.00;92.40
27922;DHT22;15261;50.356;10.340;2024-03-17T11:12:58;10.90;92.50
27922;DHT22;15261;50.356;10.340;2024-03-17T11:23:43;11.10;92.10
27922;DHT22;15261;50.356;10.340;2024-03-17T11:26:09;11.10;92.60
27922;DHT22;15261;50.356;10.340;2024-03-17T11:28:47;11.10;92.70
27922;DHT22;15261;50.356;10.340;2024-03-17T11:31:36;11.20;92.20
27922;DHT22;15261;50.356;10.340;2024-03-17T11:34:27;11.20;91.80
27922;DHT22;15261;50.356;10.340;2024-03-17T11:36:58;11.30;91.90
27922;DHT22;15261;50.356;10.340;2024-03-17T11:39:46;11.20;91.60
27922;DHT22;15261;50.356;10.340;2024-03-17T11:42:13;11.10;91.40
27922;DHT22;15261;50.356;10.340;2024-03-17T11:44:42;11.20;91.80
27922;DHT22;15261;50.356;10.340;2024-03-17T11:47:08;11.30;92.50
27922;DHT22;15261;50.356;10.340;2024-03-17T11:49:44;11.30;92.00
27922;DHT22;15261;50.356;10.340;2024-03-17T11:52:12;11.30;92.30
27922;DHT22;15261;50.356;10.340;2024-03-17T11:54:45;11.30;92.30
27922;DHT22;15261;50.356;10.340;2024-03-17T11:57:12;11.30;92.10
27922;DHT22;15261;50.356;10.340;2024-03-17T11:59:38;11.30;92.20
27922;DHT22;15261;50.356;10.340;2024-03-17T12:02:27;11.20;92.30
27922;DHT22;15261;50.356;10.340;2024-03-17T12:04:56;11.40;92.70
27922;DHT22;15261;50.356;10.340;2024-03-17T12:07:23;11.30;91.40
27922;DHT22;15261;50.356;10.340;2024-03-17T12:09:52;11.30;91.70
27922;DHT22;15261;50.356;10.340;2024-03-17T12:12:26;11.50;92.70
27922;DHT22;15261;50.356;10.340;2024-03-17T12:15:00;11.70;91.50
27922;DHT22;15261;50.356;10.340;2024-03-17T12:17:26;11.60;91.20
27922;DHT22;15261;50.356;10.340;2024-03-17T12:19:53;11.80;91.50
27922;DHT22;15261;50.356;10.340;2024-03-17T12:22:23;11.90;90.20
27922;DHT22;15261;50.356;10.340;2024-03-17T12:24:59;11.90;90.30
27922;DHT22;15261;50.356;10.340;2024-03-17T12:27:26;12.00;89.40
27922;DHT22;15261;50.356;10.340;2024-03-17T12:29:53;11.80;87.70
27922;DHT22;15261;50.356;10.340;2024-03-17T12:32:23;12.00;88.80
27922;DHT22;15261;50.356;10.340;2024-03-17T12:34:51;12.20;88.90
27922;DHT22;15261;50.356;10.340;2024-03-17T12:37:21;12.30;86.80
27922;DHT22;15261;50.356;10.340;2024-03-17T12:39:56;12.30;85.70
27922;DHT22;15261;50.356;10.340;2024-03-17T12:42:24;12.30;84.70
27922;DHT22;15261;50.356;10.340;2024-03-17T12:44:57;12.30;85.60
27922;DHT22;15261;50.356;10.340;2024-03-17T12:47:28;12.40;85.80
27922;DHT22;15261;50.356;10.340;2024-03-17T12:50:08;12.50;86.60
27922;DHT22;15261;50.356;10.340;2024-03-17T12:52:36;12.60;84.70
27922;DHT22;15261;50.356;10.340;2024-03-17T13:01:08;12.60;86.90
27922;DHT22;15261;50.356;10.340;2024-03-17T13:03:37;12.70;87.50
27922;DHT22;15261;50.356;10.340;2024-03-17T13:06:05;12.70;85.00
27922;DHT22;15261;50.356;10.340;2024-03-17T13:08:32;12.60;85.10
27922;DHT22;15261;50.356;10.340;2024-03-17T13:11:01;12.60;85.60
27922;DHT22;15261;50.356;10.340;2024-03-17T13:13:30;12.40;86.00
27922;DHT22;15261;50.356;10.340;2024-03-17T13:15:56;12.40;85.50
27922;DHT22;15261;50.356;10.340;2024-03-17T13:18:21;12.50;85.70
27922;DHT22;15261;50.356;10.340;2024-03-17T13:20:50;12.50;86.50
27922;DHT22;15261;50.356;10.340;2024-03-17T13:23:18;12.40;86.40
27922;DHT22;15261;50.356;10.340;2024-03-17T13:25:44;12.50;85.10
27922;DHT22;15261;50.356;10.340;2024-03-17T13:28:13;12.40;86.80
27922;DHT22;15261;50.356;10.340;2024-03-17T13:30:39;12.40;85.80
27922;DHT22;15261;50.356;10.340;2024-03-17T13:33:05;12.30;86.70
27922;DHT22;15261;50.356;10.340;2024-03-17T13:35:35;12.40;85.40
27922;DHT22;15261;50.356;10.340;2024-03-17T13:38:08;12.40;85.70
27922;DHT22;15261;50.356;10.340;2024-03-17T13:40:35;12.50;87.60
27922;DHT22;15261;50.356;10.340;2024-03-17T13:43:01;12.60;87.90
27922;DHT22;15261;50.356;10.340;2024-03-17T13:45:45;12.70;85.90
27922;DHT22;15261;50.356;10.340;2024-03-17T13:48:13;12.90;86.20
27922;DHT22;15261;50.356;10.340;2024-03-17T13:50:39;12.90;86.10
27922;DHT22;15261;50.356;10.340;2024-03-17T13:53:06;13.00;84.90
27922;DHT22;15261;50.356;10.340;2024-03-17T13:55:32;13.00;83.30
27922;DHT22;15261;50.356;10.340;2024-03-17T13:57:58;13.00;85.20
27922;DHT22;15261;50.356;10.340;2024-03-17T14:00:28;12.90;85.30
27922;DHT22;15261;50.356;10.340;2024-03-17T14:02:55;13.00;83.70
27922;DHT22;15261;50.356;10.340;2024-03-17T14:05:25;12.90;82.60
27922;DHT22;15261;50.356;10.340;2024-03-17T14:07:55;12.90;83.80
27922;DHT22;15261;50.356;10.340;2024-03-17T14:10:22;12.90;86.00
27922;DHT22;15261;50.356;10.340;2024-03-17T14:12:48;13.00;83.50
27922;DHT22;15261;50.356;10.340;2024-03-17T14:15:14;13.00;82.50
27922;DHT22;15261;50.356;10.340;2024-03-17T14:17:41;12.90;82.50
27922;DHT22;15261;50.356;10.340;2024-03-17T14:20:08;13.00;83.20
27922;DHT22;15261;50.356;10.340;2024-03-17T14:22:40;13.00;82.70
27922;DHT22;15261;50.356;10.340;2024-03-17T14:25:08;12.90;82.10
27922;DHT22;15261;50.356;10.340;2024-03-17T14:27:36;12.80;81.70
27922;DHT22;15261;50.356;10.340;2024-03-17T14:30:02;12.50;82.50
27922;DHT22;15261;50.356;10.340;2024-03-17T14:32:30;12.60;83.20
27922;DHT22;15261;50.356;10.340;2024-03-17T14:34:55;12.60;84.30
27922;DHT22;15261;50.356;10.340;2024-03-17T14:37:21;12.60;83.80
27922;DHT22;15261;50.356;10.340;2024-03-17T14:39:48;12.60;83.90
27922;DHT22;15261;50.356;10.340;2024-03-17T14:42:13;12.50;84.10
27922;DHT22;15261;50.356;10.340;2024-03-17T14:44:40;12.40;84.10
27922;DHT22;15261;50.356;10.340;2024-03-17T14:47:05;12.30;84.90
27922;DHT22;15261;50.356;10.340;2024-03-17T14:49:32;12.20;84.30
27922;DHT22;15261;50.356;10.340;2024-03-17T14:51:57;12.10;85.50
27922;DHT22;15261;50.356;10.340;2024-03-17T14:54:23;12.10;85.80
27922;DHT22;15261;50.356;10.340;2024-03-17T14:56:49;12.10;85.80
27922;DHT22;15261;50.356;10.340;2024-03-17T14:59:14;12.00;84.60
27922;DHT22;15261;50.356;10.340;2024-03-17T15:01:45;11.80;85.30
27922;DHT22;15261;50.356;10.340;2024-03-17T15:04:13;11.70;85.90
27922;DHT22;15261;50.356;10.340;2024-03-17T15:06:40;11.70;86.50
27922;DHT22;15261;50.356;10.340;2024-03-17T15:09:06;11.80;86.50
27922;DHT22;15261;50.356;10.340;2024-03-17T15:11:31;11.80;89.10
27922;DHT22;15261;50.356;10.340;2024-03-17T15:13:57;11.80;88.10
27922;DHT22;15261;50.356;10.340;2024-03-17T15:16:23;11.90;87.40
27922;DHT22;15261;50.356;10.340;2024-03-17T15:18:49;11.80;87.60
27922;DHT22;15261;50.356;10.340;2024-03-17T15:21:16;11.90;87.20
27922;DHT22;15261;50.356;10.340;2024-03-17T15:23:50;11.80;88.80
27922;DHT22;15261;50.356;10.340;2024-03-17T15:26:17;11.90;88.60
27922;DHT22;15261;50.356;10.340;2024-03-17T15:28:43;11.70;89.30
27922;DHT22;15261;50.356;10.340;2024-03-17T15:31:10;11.70;88.60
27922;DHT22;15261;50.356;10.340;2024-03-17T15:33:37;11.70;88.10
27922;DHT22;15261;50.356;10.340;2024-03-17T15:36:07;11.70;87.30
27922;DHT22;15261;50.356;10.340;2024-03-17T15:38:37;11.70;86.90
27922;DHT22;15261;50.356;10.340;2024-03-17T15:41:07;11.60;87.30
27922;DHT22;15261;50.356;10.340;2024-03-17T15:43:36;11.50;86.60
27922;DHT22;15261;50.356;10.340;2024-03-17T15:46:08;11.40;88.10
27922;DHT22;15261;50.356;10.340;2024-03-17T15:48:34;11.40;88.80
27922;DHT22;15261;50.356;10.340;2024-03-17T15:50:59;11.40;88.90
27922;DHT22;15261;50.356;10.340;2024-03-17T15:53:25;11.30;89.80
27922;DHT22;15261;50.356;10.340;2024-03-17T15:56:06;11.40;89.50
27922;DHT22;15261;50.356;10.340;2024-03-17T15:58:33;11.30;88.80
27922;DHT22;15261;50.356;10.340;2024-03-17T16:01:04;11.20;89.00
27922;DHT22;15261;50.356;10.340;2024-03-17T16:03:32;11.30;88.10
27922;DHT22;15261;50.356;10.340;2024-03-17T16:06:07;11.20;86.00
27922;DHT22;15261;50.356;10.340;2024-03-17T16:08:39;11.20;87.40
27922;DHT22;15261;50.356;10.340;2024-03-17T16:11:10;11.10;87.90
27922;DHT22;15261;50.356;10.340;2024-03-17T16:13:39;11.00;88.40